sensor_id;sensor_type;location;lat;lon;timestamp;temperature;humidity
5009;DHT22;2523;51.058;6.922;2023-01-13T00:00:01;11.00;99.90
5009;DHT22;2523;51.058;6.922;2023-01-13T00:02:28;11.00;99.90
5009;DHT22;2523;51.058;6.922;2023-01-13T00:04:53;11.00;99.90
5009;DHT22;2523;51.058;6.922;2023-01-13T00:07:19;11.00;99.90
5009;DHT22;2523;51.058;6.922;2023-01-13T00:09:45;11.00;99.90
5009;DHT22;2523;51.058;6.922;2023-01-13T00:12:10;11.00;99.90
5009;DHT22;2523;51.058;6.922;2023-01-13T00:14:36;11.10;99.90
5009;DHT22;2523;51.058;6.922;2023-01-13T00:17:03;11.00;99.90
5009;DHT22;2523;51.058;6.922;2023-01-13T00:19:28;11.00;99.90
5009;DHT22;2523;51.058;6.922;2023-01-13T00:21:54;11.00;99.90
5009;DHT22;2523;51.058;6.922;2023-01-13T00:24:19;11.00;99.90
5009;DHT22;2523;51.058;6.922;2023-01-13T00:26:45;10.90;99.90
5009;DHT22;2523;51.058;6.922;2023-01-13T00:29:10;10.90;99.90
5009;DHT22;2523;51.058;6.922;2023-01-13T00:31:36;10.90;99.90
5009;DHT22;2523;51.058;6.922;2023-01-13T00:34:02;10.90;99.90
5009;DHT22;2523;51.058;6.922;2023-01-13T00:36:28;10.90;99.90
5009;DHT22;2523;51.058;6.922;2023-01-13T00:38:55;10.80;99.90
5009;DHT22;2523;51.058;6.922;2023-01-13T00:41:22;10.80;99.90
5009;DHT22;2523;51.058;6.922;2023-01-13T00:43:49;10.80;99.90
5009;DHT22;2523;51.058;6.922;2023-01-13T00:46:19;10.80;99.90
5009;DHT22;2523;51.058;6.922;2023-01-13T00:48:46;10.80;99.90
5009;DHT22;2523;51.058;6.922;2023-01-13T00:51:19;10.70;99.90
5009;DHT22;2523;51.058;6.922;2023-01-13T00:53:47;10.70;99.90
5009;DHT22;2523;51.058;6.922;2023-01-13T00:56:16;10.70;99.90
5009;DHT22;2523;51.058;6.922;2023-01-13T00:58:43;10.70;99.90
5009;DHT22;2523;51.058;6.922;2023-01-13T01:01:17;10.70;99.90
5009;DHT22;2523;51.058;6.922;2023-01-13T01:03:43;10.70;99.90
5009;DHT22;2523;51.058;6.922;2023-01-13T01:06:14;10.70;99.90
5009;DHT22;2523;51.058;6.922;2023-01-13T01:08:41;10.70;99.90
5009;DHT22;2523;51.058;6.922;2023-01-13T01:11:15;10.70;99.90
5009;DHT22;2523;51.058;6.922;2023-01-13T01:13:41;10.60;99.90
5009;DHT22;2523;51.058;6.922;2023-01-13T01:16:09;10.60;99.90
5009;DHT22;2523;51.058;6.922;2023-01-13T01:18:40;10.60;99.90
5009;DHT22;2523;51.058;6.922;2023-01-13T01:21:06;10.60;99.90
5009;DHT22;2523;51.058;6.922;2023-01-13T01:23:33;10.60;99.90
5009;DHT22;2523;51.058;6.922;2023-01-13T01:26:06;10.60;99.90
5009;DHT22;2523;51.058;6.922;2023-01-13T01:28:33;10.70;99.90
5009;DHT22;2523;51.058;6.922;2023-01-13T01:30:59;10.70;99.90
5009;DHT22;2523;51.058;6.922;2023-01-13T01:33:25;10.70;99.90
5009;DHT22;2523;51.058;6.922;2023-01-13T01:35:51;10.70;99.90
5009;DHT22;2523;51.058;6.922;2023-01-13T01:38:17;10.70;99.90
5009;DHT22;2523;51.058;6.922;2023-01-13T01:40:42;10.70;99.90
5009;DHT22;2523;51.058;6.922;2023-01-13T01:43:20;10.70;99.90
5009;DHT22;2523;51.058;6.922;2023-01-13T01:46:05;10.70;99.90
5009;DHT22;2523;51.058;6.922;2023-01-13T01:48:36;10.50;99.90
5009;DHT22;2523;51.058;6.922;2023-01-13T01:51:06;10.40;99.90
5009;DHT22;2523;51.058;6.922;2023-01-13T01:53:33;10.30;99.90
5009;DHT22;2523;51.058;6.922;2023-01-13T01:55:59;10.20;99.90
5009;DHT22;2523;51.058;6.922;2023-01-13T01:58:38;10.20;99.90
5009;DHT22;2523;51.058;6.922;2023-01-13T02:01:07;10.10;99.90
5009;DHT22;2523;51.058;6.922;2023-01-13T02:03:35;10.00;99.90
5009;DHT22;2523;51.058;6.922;2023-01-13T02:06:02;9.90;99.90
5009;DHT22;2523;51.058;6.922;2023-01-13T02:08:28;9.90;99.90
5009;DHT22;2523;51.058;6.922;2023-01-13T02:10:53;9.70;99.90
5009;DHT22;2523;51.058;6.922;2023-01-13T02:13:20;9.70;99.90
5009;DHT22;2523;51.058;6.922;2023-01-13T02:16:07;9.70;99.90
5009;DHT22;2523;51.058;6.922;2023-01-13T02:22:05;9.50;99.90
5009;DHT22;2523;51.058;6.922;2023-01-13T02:27:39;9.40;99.90
5009;DHT22;2523;51.058;6.922;2023-01-13T02:30:29;9.30;99.90
5009;DHT22;2523;51.058;6.922;2023-01-13T02:33:21;9.30;99.90
5009;DHT22;2523;51.058;6.922;2023-01-13T02:36:04;9.30;99.90
5009;DHT22;2523;51.058;6.922;2023-01-13T02:38:36;9.30;99.90
5009;DHT22;2523;51.058;6.922;2023-01-13T02:41:12;9.30;99.90
5009;DHT22;2523;51.058;6.922;2023-01-13T02:44:01;9.30;99.90
5009;DHT22;2523;51.058;6.922;2023-01-13T02:49:15;9.30;99.90
5009;DHT22;2523;51.058;6.922;2023-01-13T02:51:44;9.30;99.90
5009;DHT22;2523;51.058;6.922;2023-01-13T02:54:17;9.30;99.90
5009;DHT22;2523;51.058;6.922;2023-01-13T02:56:47;9.30;99.90
5009;DHT22;2523;51.058;6.922;2023-01-13T02:59:13;9.30;99.90
5009;DHT22;2523;51.058;6.922;2023-01-13T03:01:40;9.30;99.90
5009;DHT22;2523;51.058;6.922;2023-01-13T03:04:11;9.20;99.90
5009;DHT22;2523;51.058;6.922;2023-01-13T03:07:02;9.20;99.90
5009;DHT22;2523;51.058;6.922;2023-01-13T03:09:44;9.10;99.90
5009;DHT22;2523;51.058;6.922;2023-01-13T03:12:41;9.20;99.90
5009;DHT22;2523;51.058;6.922;2023-01-13T03:15:11;9.20;99.90
5009;DHT22;2523;51.058;6.922;2023-01-13T03:17:43;9.20;99.90
5009;DHT22;2523;51.058;6.922;2023-01-13T03:20:22;9.20;99.90
5009;DHT22;2523;51.058;6.922;2023-01-13T03:23:14;9.20;99.90
5009;DHT22;2523;51.058;6.922;2023-01-13T03:26:10;9.30;99.90
5009;DHT22;2523;51.058;6.922;2023-01-13T03:28:50;9.30;99.90
5009;DHT22;2523;51.058;6.922;2023-01-13T03:31:22;9.30;99.90
5009;DHT22;2523;51.058;6.922;2023-01-13T03:33:56;9.20;99.90
5009;DHT22;2523;51.058;6.922;2023-01-13T03:36:25;9.20;99.90
5009;DHT22;2523;51.058;6.922;2023-01-13T03:38:56;9.20;99.90
5009;DHT22;2523;51.058;6.922;2023-01-13T03:41:32;9.10;99.90
5009;DHT22;2523;51.058;6.922;2023-01-13T03:44:19;9.10;99.90
5009;DHT22;2523;51.058;6.922;2023-01-13T03:47:09;9.10;99.90
5009;DHT22;2523;51.058;6.922;2023-01-13T03:52:04;9.10;99.90
5009;DHT22;2523;51.058;6.922;2023-01-13T03:54:34;9.10;99.90
5009;DHT22;2523;51.058;6.922;2023-01-13T03:57:06;9.00;99.90
5009;DHT22;2523;51.058;6.922;2023-01-13T03:59:36;9.00;99.90
5009;DHT22;2523;51.058;6.922;2023-01-13T04:02:18;9.10;99.90
5009;DHT22;2523;51.058;6.922;2023-01-13T04:04:58;9.10;99.90
5009;DHT22;2523;51.058;6.922;2023-01-13T04:07:54;9.10;99.90
5009;DHT22;2523;51.058;6.922;2023-01-13T04:10:27;9.10;99.90
5009;DHT22;2523;51.058;6.922;2023-01-13T04:13:21;9.00;99.90
5009;DHT22;2523;51.058;6.922;2023-01-13T04:15:48;8.90;99.90
5009;DHT22;2523;51.058;6.922;2023-01-13T04:20:47;8.90;99.90
5009;DHT22;2523;51.058;6.922;2023-01-13T04:23:13;8.80;99.90
5009;DHT22;2523;51.058;6.922;2023-01-13T04:25:40;8.80;99.90
5009;DHT22;2523;51.058;6.922;2023-01-13T04:28:06;8.80;99.90
5009;DHT22;2523;51.058;6.922;2023-01-13T04:30:32;8.70;99.90
5009;DHT22;2523;51.058;6.922;2023-01-13T04:32:58;8.70;99.90
5009;DHT22;2523;51.058;6.922;2023-01-13T04:35:24;8.70;99.90
5009;DHT22;2523;51.058;6.922;2023-01-13T04:37:50;8.70;99.90
5009;DHT22;2523;51.058;6.922;2023-01-13T04:40:15;8.70;99.90
5009;DHT22;2523;51.058;6.922;2023-01-13T04:42:43;8.70;99.90
5009;DHT22;2523;51.058;6.922;2023-01-13T04:45:09;8.70;99.90
5009;DHT22;2523;51.058;6.922;2023-01-13T04:47:34;8.70;99.90
5009;DHT22;2523;51.058;6.922;2023-01-13T04:50:00;8.60;99.90
5009;DHT22;2523;51.058;6.922;2023-01-13T04:52:25;8.60;99.90
5009;DHT22;2523;51.058;6.922;2023-01-13T04:54:51;8.60;99.90
5009;DHT22;2523;51.058;6.922;2023-01-13T04:57:17;8.60;99.90
5009;DHT22;2523;51.058;6.922;2023-01-13T04:59:42;8.60;99.90
5009;DHT22;2523;51.058;6.922;2023-01-13T05:02:07;8.70;99.90
5009;DHT22;2523;51.058;6.922;2023-01-13T05:04:34;8.70;99.90
5009;DHT22;2523;51.058;6.922;2023-01-13T05:06:59;8.80;99.90
5009;DHT22;2523;51.058;6.922;2023-01-13T05:09:25;8.80;99.90
5009;DHT22;2523;51.058;6.922;2023-01-13T05:11:51;8.80;99.90
5009;DHT22;2523;51.058;6.922;2023-01-13T05:14:55;8.80;99.90
5009;DHT22;2523;51.058;6.922;2023-01-13T05:17:39;8.80;99.90
5009;DHT22;2523;51.058;6.922;2023-01-13T05:20:06;8.80;99.90
5009;DHT22;2523;51.058;6.922;2023-01-13T05:22:32;8.80;99.90
5009;DHT22;2523;51.058;6.922;2023-01-13T05:25:16;8.80;99.90
5009;DHT22;2523;51.058;6.922;2023-01-13T05:27:56;8.70;99.90
5009;DHT22;2523;51.058;6.922;2023-01-13T05:30:24;8.70;99.90
5009;DHT22;2523;51.058;6.922;2023-01-13T05:32:50;8.80;99.90
5009;DHT22;2523;51.058;6.922;2023-01-13T05:35:16;8.70;99.90
5009;DHT22;2523;51.058;6.922;2023-01-13T05:37:46;8.80;99.90
5009;DHT22;2523;51.058;6.922;2023-01-13T05:40:13;8.80;99.90
5009;DHT22;2523;51.058;6.922;2023-01-13T05:43:11;8.80;99.90
5009;DHT22;2523;51.058;6.922;2023-01-13T05:45:51;8.90;99.90
5009;DHT22;2523;51.058;6.922;2023-01-13T05:48:19;8.90;99.90
5009;DHT22;2523;51.058;6.922;2023-01-13T05:50:46;8.90;99.90
5009;DHT22;2523;51.058;6.922;2023-01-13T05:53:12;8.90;99.90
5009;DHT22;2523;51.058;6.922;2023-01-13T05:55:39;8.90;99.90
5009;DHT22;2523;51.058;6.922;2023-01-13T05:58:09;8.90;99.90
5009;DHT22;2523;51.058;6.922;2023-01-13T06:00:35;8.80;99.90
5009;DHT22;2523;51.058;6.922;2023-01-13T06:03:01;8.80;99.90
5009;DHT22;2523;51.058;6.922;2023-01-13T06:05:27;8.80;99.90
5009;DHT22;2523;51.058;6.922;2023-01-13T06:07:56;8.80;99.90
5009;DHT22;2523;51.058;6.922;2023-01-13T06:10:22;8.80;99.90
5009;DHT22;2523;51.058;6.922;2023-01-13T06:12:48;8.80;99.90
5009;DHT22;2523;51.058;6.922;2023-01-13T06:15:13;8.80;99.90
5009;DHT22;2523;51.058;6.922;2023-01-13T06:17:39;8.80;99.90
5009;DHT22;2523;51.058;6.922;2023-01-13T06:20:04;8.80;99.90
5009;DHT22;2523;51.058;6.922;2023-01-13T06:22:32;8.90;99.90
5009;DHT22;2523;51.058;6.922;2023-01-13T06:25:00;8.80;99.90
5009;DHT22;2523;51.058;6.922;2023-01-13T06:27:26;8.90;99.90
5009;DHT22;2523;51.058;6.922;2023-01-13T06:29:53;8.90;99.90
5009;DHT22;2523;51.058;6.922;2023-01-13T06:32:24;8.90;99.90
5009;DHT22;2523;51.058;6.922;2023-01-13T06:34:55;8.90;99.90
5009;DHT22;2523;51.058;6.922;2023-01-13T06:37:22;9.00;99.90
5009;DHT22;2523;51.058;6.922;2023-01-13T06:39:51;9.00;99.90
5009;DHT22;2523;51.058;6.922;2023-01-13T06:42:21;9.00;99.90
5009;DHT22;2523;51.058;6.922;2023-01-13T06:45:05;9.00;99.90
5009;DHT22;2523;51.058;6.922;2023-01-13T06:47:31;8.90;99.90
5009;DHT22;2523;51.058;6.922;2023-01-13T06:49:56;8.90;99.90
5009;DHT22;2523;51.058;6.922;2023-01-13T06:52:24;8.80;99.90
5009;DHT22;2523;51.058;6.922;2023-01-13T06:54:51;8.80;99.90
5009;DHT22;2523;51.058;6.922;2023-01-13T06:57:17;8.90;99.90
5009;DHT22;2523;51.058;6.922;2023-01-13T06:59:42;8.80;99.90
5009;DHT22;2523;51.058;6.922;2023-01-13T07:02:08;8.80;99.90
5009;DHT22;2523;51.058;6.922;2023-01-13T07:04:33;8.80;99.90
5009;DHT22;2523;51.058;6.922;2023-01-13T07:06:59;8.80;99.90
5009;DHT22;2523;51.058;6.922;2023-01-13T07:09:25;8.90;99.90
5009;DHT22;2523;51.058;6.922;2023-01-13T07:11:50;8.90;99.90
5009;DHT22;2523;51.058;6.922;2023-01-13T07:14:17;8.90;99.90
5009;DHT22;2523;51.058;6.922;2023-01-13T07:17:02;8.90;99.90
5009;DHT22;2523;51.058;6.922;2023-01-13T07:19:28;8.90;99.90
5009;DHT22;2523;51.058;6.922;2023-01-13T07:21:53;8.80;99.90
5009;DHT22;2523;51.058;6.922;2023-01-13T07:24:19;8.80;99.90
5009;DHT22;2523;51.058;6.922;2023-01-13T07:26:45;8.80;99.90
5009;DHT22;2523;51.058;6.922;2023-01-13T07:29:10;8.80;99.90
5009;DHT22;2523;51.058;6.922;2023-01-13T07:31:36;8.70;99.90
5009;DHT22;2523;51.058;6.922;2023-01-13T07:34:03;8.70;99.90
5009;DHT22;2523;51.058;6.922;2023-01-13T07:36:29;8.60;99.90
5009;DHT22;2523;51.058;6.922;2023-01-13T07:38:55;8.70;99.90
5009;DHT22;2523;51.058;6.922;2023-01-13T07:41:21;8.60;99.90
5009;DHT22;2523;51.058;6.922;2023-01-13T07:44:05;8.50;99.90
5009;DHT22;2523;51.058;6.922;2023-01-13T07:46:32;8.50;99.90
5009;DHT22;2523;51.058;6.922;2023-01-13T07:48:58;8.50;99.90
5009;DHT22;2523;51.058;6.922;2023-01-13T07:51:23;8.60;99.90
5009;DHT22;2523;51.058;6.922;2023-01-13T07:53:49;8.50;99.90
5009;DHT22;2523;51.058;6.922;2023-01-13T07:56:15;8.50;99.90
5009;DHT22;2523;51.058;6.922;2023-01-13T07:58:40;8.50;99.90
5009;DHT22;2523;51.058;6.922;2023-01-13T08:01:08;8.50;99.90
5009;DHT22;2523;51.058;6.922;2023-01-13T08:03:34;8.40;99.90
5009;DHT22;2523;51.058;6.922;2023-01-13T08:06:00;8.40;99.90
5009;DHT22;2523;51.058;6.922;2023-01-13T08:08:26;8.40;99.90
5009;DHT22;2523;51.058;6.922;2023-01-13T08:10:51;8.40;99.90
5009;DHT22;2523;51.058;6.922;2023-01-13T08:13:18;8.40;99.90
5009;DHT22;2523;51.058;6.922;2023-01-13T08:15:52;8.50;99.90
5009;DHT22;2523;51.058;6.922;2023-01-13T08:18:20;8.50;99.90
5009;DHT22;2523;51.058;6.922;2023-01-13T08:20:47;8.60;99.90
5009;DHT22;2523;51.058;6.922;2023-01-13T08:23:13;8.60;99.90
5009;DHT22;2523;51.058;6.922;2023-01-13T08:25:39;8.60;99.90
5009;DHT22;2523;51.058;6.922;2023-01-13T08:28:05;8.60;99.90
5009;DHT22;2523;51.058;6.922;2023-01-13T08:30:30;8.70;99.90
5009;DHT22;2523;51.058;6.922;2023-01-13T08:32:56;8.70;99.90
5009;DHT22;2523;51.058;6.922;2023-01-13T08:35:22;8.80;99.90
5009;DHT22;2523;51.058;6.922;2023-01-13T08:37:48;8.80;99.90
5009;DHT22;2523;51.058;6.922;2023-01-13T08:40:15;8.80;99.90
5009;DHT22;2523;51.058;6.922;2023-01-13T08:42:41;8.90;99.90
5009;DHT22;2523;51.058;6.922;2023-01-13T08:45:08;9.00;99.90
5009;DHT22;2523;51.058;6.922;2023-01-13T08:47:34;9.10;99.90
5009;DHT22;2523;51.058;6.922;2023-01-13T08:49:59;9.20;99.90
5009;DHT22;2523;51.058;6.922;2023-01-13T08:52:25;9.20;99.90
5009;DHT22;2523;51.058;6.922;2023-01-13T08:54:51;9.20;99.90
5009;DHT22;2523;51.058;6.922;2023-01-13T08:57:17;9.30;99.90
5009;DHT22;2523;51.058;6.922;2023-01-13T08:59:45;9.40;99.90
5009;DHT22;2523;51.058;6.922;2023-01-13T09:02:19;9.40;99.90
5009;DHT22;2523;51.058;6.922;2023-01-13T09:04:46;9.30;99.90
5009;DHT22;2523;51.058;6.922;2023-01-13T09:07:12;9.20;99.90
5009;DHT22;2523;51.058;6.922;2023-01-13T09:09:37;9.10;99.90
5009;DHT22;2523;51.058;6.922;2023-01-13T09:12:04;9.10;99.90
5009;DHT22;2523;51.058;6.922;2023-01-13T09:14:48;9.10;99.90
5009;DHT22;2523;51.058;6.922;2023-01-13T09:17:14;9.20;99.90
5009;DHT22;2523;51.058;6.922;2023-01-13T09:19:39;9.20;99.90
5009;DHT22;2523;51.058;6.922;2023-01-13T09:22:06;9.20;99.90
5009;DHT22;2523;51.058;6.922;2023-01-13T09:24:31;9.20;99.90
5009;DHT22;2523;51.058;6.922;2023-01-13T09:26:57;9.20;99.90
5009;DHT22;2523;51.058;6.922;2023-01-13T09:29:23;9.30;99.90
5009;DHT22;2523;51.058;6.922;2023-01-13T09:31:48;9.30;99.90
5009;DHT22;2523;51.058;6.922;2023-01-13T09:34:16;9.30;99.90
5009;DHT22;2523;51.058;6.922;2023-01-13T09:37:02;9.40;99.90
5009;DHT22;2523;51.058;6.922;2023-01-13T09:39:28;9.40;99.90
5009;DHT22;2523;51.058;6.922;2023-01-13T09:41:56;9.40;99.90
5009;DHT22;2523;51.058;6.922;2023-01-13T09:44:48;9.50;99.90
5009;DHT22;2523;51.058;6.922;2023-01-13T09:47:25;9.50;99.90
5009;DHT22;2523;51.058;6.922;2023-01-13T09:49:53;9.40;99.90
5009;DHT22;2523;51.058;6.922;2023-01-13T09:52:22;9.50;99.90
5009;DHT22;2523;51.058;6.922;2023-01-13T09:55:02;9.50;99.90
5009;DHT22;2523;51.058;6.922;2023-01-13T09:57:33;9.50;99.90
5009;DHT22;2523;51.058;6.922;2023-01-13T10:00:00;9.60;99.90
5009;DHT22;2523;51.058;6.922;2023-01-13T10:05:26;9.60;99.90
5009;DHT22;2523;51.058;6.922;2023-01-13T10:07:58;9.70;99.90
5009;DHT22;2523;51.058;6.922;2023-01-13T10:10:42;9.70;99.90
5009;DHT22;2523;51.058;6.922;2023-01-13T10:16:32;9.80;99.90
5009;DHT22;2523;51.058;6.922;2023-01-13T10:19:03;10.20;99.90
5009;DHT22;2523;51.058;6.922;2023-01-13T10:22:01;10.50;99.90
5009;DHT22;2523;51.058;6.922;2023-01-13T10:24:57;10.80;99.90
5009;DHT22;2523;51.058;6.922;2023-01-13T10:27:35;10.40;99.90
5009;DHT22;2523;51.058;6.922;2023-01-13T10:30:25;10.30;99.90
5009;DHT22;2523;51.058;6.922;2023-01-13T10:32:58;10.10;99.90
5009;DHT22;2523;51.058;6.922;2023-01-13T10:35:54;10.00;99.90
5009;DHT22;2523;51.058;6.922;2023-01-13T10:38:36;10.00;99.90
5009;DHT22;2523;51.058;6.922;2023-01-13T10:41:05;9.90;99.90
5009;DHT22;2523;51.058;6.922;2023-01-13T10:43:31;10.00;99.90
5009;DHT22;2523;51.058;6.922;2023-01-13T10:48:42;10.00;99.90
5009;DHT22;2523;51.058;6.922;2023-01-13T10:51:20;9.90;99.90
5009;DHT22;2523;51.058;6.922;2023-01-13T10:56:23;9.90;99.90
5009;DHT22;2523;51.058;6.922;2023-01-13T10:58:49;9.90;99.90
5009;DHT22;2523;51.058;6.922;2023-01-13T11:01:25;9.90;99.90
5009;DHT22;2523;51.058;6.922;2023-01-13T11:03:54;9.90;99.90
5009;DHT22;2523;51.058;6.922;2023-01-13T11:06:28;9.90;99.90
5009;DHT22;2523;51.058;6.922;2023-01-13T11:08:56;9.90;99.90
5009;DHT22;2523;51.058;6.922;2023-01-13T11:11:36;9.90;99.90
5009;DHT22;2523;51.058;6.922;2023-01-13T11:14:37;10.10;99.90
5009;DHT22;2523;51.058;6.922;2023-01-13T11:19:45;11.20;99.90
5009;DHT22;2523;51.058;6.922;2023-01-13T11:22:24;10.80;99.90
5009;DHT22;2523;51.058;6.922;2023-01-13T11:25:04;10.50;99.90
5009;DHT22;2523;51.058;6.922;2023-01-13T11:27:42;10.50;99.90
5009;DHT22;2523;51.058;6.922;2023-01-13T11:30:25;10.40;99.90
5009;DHT22;2523;51.058;6.922;2023-01-13T11:35:40;10.20;99.90
5009;DHT22;2523;51.058;6.922;2023-01-13T11:38:26;10.20;99.90
5009;DHT22;2523;51.058;6.922;2023-01-13T11:41:01;10.20;99.90
5009;DHT22;2523;51.058;6.922;2023-01-13T11:43:56;10.20;99.90
5009;DHT22;2523;51.058;6.922;2023-01-13T11:46:27;10.10;99.90
5009;DHT22;2523;51.058;6.922;2023-01-13T11:48:54;10.10;99.90
5009;DHT22;2523;51.058;6.922;2023-01-13T11:51:32;10.10;99.90
5009;DHT22;2523;51.058;6.922;2023-01-13T11:57:24;10.00;99.90
5009;DHT22;2523;51.058;6.922;2023-01-13T12:02:49;10.00;99.90
5009;DHT22;2523;51.058;6.922;2023-01-13T12:08:20;9.90;99.90
5009;DHT22;2523;51.058;6.922;2023-01-13T12:11:04;9.90;99.90
5009;DHT22;2523;51.058;6.922;2023-01-13T12:13:50;9.90;99.90
5009;DHT22;2523;51.058;6.922;2023-01-13T12:16:25;9.90;99.90
5009;DHT22;2523;51.058;6.922;2023-01-13T12:19:29;10.00;99.90
5009;DHT22;2523;51.058;6.922;2023-01-13T12:22:11;10.00;99.90
5009;DHT22;2523;51.058;6.922;2023-01-13T12:27:47;10.00;99.90
5009;DHT22;2523;51.058;6.922;2023-01-13T12:30:38;10.00;99.90
5009;DHT22;2523;51.058;6.922;2023-01-13T12:36:02;10.00;99.90
5009;DHT22;2523;51.058;6.922;2023-01-13T12:38:35;10.00;99.90
5009;DHT22;2523;51.058;6.922;2023-01-13T12:43:49;10.00;99.90
5009;DHT22;2523;51.058;6.922;2023-01-13T12:46:52;10.00;99.90
5009;DHT22;2523;51.058;6.922;2023-01-13T12:49:24;10.00;99.90
5009;DHT22;2523;51.058;6.922;2023-01-13T12:59:41;9.60;99.90
5009;DHT22;2523;51.058;6.922;2023-01-13T13:04:51;9.20;99.90
5009;DHT22;2523;51.058;6.922;2023-01-13T13:07:30;9.00;99.90
5009;DHT22;2523;51.058;6.922;2023-01-13T13:10:27;8.90;99.90
5009;DHT22;2523;51.058;6.922;2023-01-13T13:13:00;8.90;99.90
5009;DHT22;2523;51.058;6.922;2023-01-13T13:15:49;8.90;99.90
5009;DHT22;2523;51.058;6.922;2023-01-13T13:21:04;9.00;99.90
5009;DHT22;2523;51.058;6.922;2023-01-13T13:34:36;9.00;99.90
5009;DHT22;2523;51.058;6.922;2023-01-13T13:39:54;9.00;99.90
5009;DHT22;2523;51.058;6.922;2023-01-13T13:42:53;9.00;99.90
5009;DHT22;2523;51.058;6.922;2023-01-13T13:45:51;9.00;99.90
5009;DHT22;2523;51.058;6.922;2023-01-13T13:48:36;8.90;99.90
5009;DHT22;2523;51.058;6.922;2023-01-13T13:51:09;8.90;99.90
5009;DHT22;2523;51.058;6.922;2023-01-13T13:53:41;8.90;99.90
5009;DHT22;2523;51.058;6.922;2023-01-13T13:56:20;8.90;99.90
5009;DHT22;2523;51.058;6.922;2023-01-13T13:58:48;8.80;99.90
5009;DHT22;2523;51.058;6.922;2023-01-13T14:01:28;8.80;99.90
5009;DHT22;2523;51.058;6.922;2023-01-13T14:04:23;8.80;99.90
5009;DHT22;2523;51.058;6.922;2023-01-13T14:06:54;8.80;99.90
5009;DHT22;2523;51.058;6.922;2023-01-13T14:09:22;8.80;99.90
5009;DHT22;2523;51.058;6.922;2023-01-13T14:12:03;8.90;99.90
5009;DHT22;2523;51.058;6.922;2023-01-13T14:14:31;9.00;99.90
5009;DHT22;2523;51.058;6.922;2023-01-13T14:16:57;9.00;99.90
5009;DHT22;2523;51.058;6.922;2023-01-13T14:19:30;9.00;99.90
5009;DHT22;2523;51.058;6.922;2023-01-13T14:21:57;9.00;99.90
5009;DHT22;2523;51.058;6.922;2023-01-13T14:24:24;9.10;99.90
5009;DHT22;2523;51.058;6.922;2023-01-13T14:26:50;9.10;99.90
5009;DHT22;2523;51.058;6.922;2023-01-13T14:29:21;9.10;99.90
5009;DHT22;2523;51.058;6.922;2023-01-13T14:31:52;9.20;99.90
5009;DHT22;2523;51.058;6.922;2023-01-13T14:34:20;9.20;99.90
5009;DHT22;2523;51.058;6.922;2023-01-13T14:36:47;9.30;99.90
5009;DHT22;2523;51.058;6.922;2023-01-13T14:46:53;9.30;99.90
5009;DHT22;2523;51.058;6.922;2023-01-13T14:51:45;9.30;99.90
5009;DHT22;2523;51.058;6.922;2023-01-13T14:57:12;9.30;99.90
5009;DHT22;2523;51.058;6.922;2023-01-13T15:05:29;9.30;99.90
5009;DHT22;2523;51.058;6.922;2023-01-13T15:10:44;9.20;99.90
5009;DHT22;2523;51.058;6.922;2023-01-13T15:16:15;9.20;99.90
5009;DHT22;2523;51.058;6.922;2023-01-13T15:18:41;9.10;99.90
5009;DHT22;2523;51.058;6.922;2023-01-13T15:21:07;9.10;99.90
5009;DHT22;2523;51.058;6.922;2023-01-13T15:23:34;9.00;99.90
5009;DHT22;2523;51.058;6.922;2023-01-13T15:26:00;9.00;99.90
5009;DHT22;2523;51.058;6.922;2023-01-13T15:28:26;8.90;99.90
5009;DHT22;2523;51.058;6.922;2023-01-13T15:30:53;8.90;99.90
5009;DHT22;2523;51.058;6.922;2023-01-13T15:33:21;8.90;99.90
5009;DHT22;2523;51.058;6.922;2023-01-13T15:35:49;8.90;99.90
5009;DHT22;2523;51.058;6.922;2023-01-13T15:38:18;8.90;99.90
5009;DHT22;2523;51.058;6.922;2023-01-13T15:40:44;8.90;99.90
5009;DHT22;2523;51.058;6.922;2023-01-13T15:43:16;8.90;99.90
5009;DHT22;2523;51.058;6.922;2023-01-13T15:46:02;8.90;99.90
5009;DHT22;2523;51.058;6.922;2023-01-13T15:48:46;8.90;99.90
5009;DHT22;2523;51.058;6.922;2023-01-13T15:51:13;8.90;99.90
5009;DHT22;2523;51.058;6.922;2023-01-13T15:53:39;8.80;99.90
5009;DHT22;2523;51.058;6.922;2023-01-13T15:56:11;8.80;99.90
5009;DHT22;2523;51.058;6.922;2023-01-13T15:58:39;8.80;99.90
5009;DHT22;2523;51.058;6.922;2023-01-13T16:01:04;8.80;99.90
5009;DHT22;2523;51.058;6.922;2023-01-13T16:03:30;8.80;99.90
5009;DHT22;2523;51.058;6.922;2023-01-13T16:05:55;8.80;99.90
5009;DHT22;2523;51.058;6.922;2023-01-13T16:08:22;8.90;99.90
5009;DHT22;2523;51.058;6.922;2023-01-13T16:10:48;8.90;99.90
5009;DHT22;2523;51.058;6.922;2023-01-13T16:13:15;8.90;99.90
5009;DHT22;2523;51.058;6.922;2023-01-13T16:15:47;8.80;99.90
5009;DHT22;2523;51.058;6.922;2023-01-13T16:18:15;8.70;99.90
5009;DHT22;2523;51.058;6.922;2023-01-13T16:20:41;8.70;99.90
5009;DHT22;2523;51.058;6.922;2023-01-13T16:23:08;8.60;99.90
5009;DHT22;2523;51.058;6.922;2023-01-13T16:25:33;8.40;99.90
5009;DHT22;2523;51.058;6.922;2023-01-13T16:27:59;8.40;99.90
5009;DHT22;2523;51.058;6.922;2023-01-13T16:30:28;8.30;99.90
5009;DHT22;2523;51.058;6.922;2023-01-13T16:32:54;8.20;99.90
5009;DHT22;2523;51.058;6.922;2023-01-13T16:35:21;8.10;99.90
5009;DHT22;2523;51.058;6.922;2023-01-13T16:37:47;8.10;99.90
5009;DHT22;2523;51.058;6.922;2023-01-13T16:40:34;8.10;99.90
5009;DHT22;2523;51.058;6.922;2023-01-13T16:43:02;8.10;99.90
5009;DHT22;2523;51.058;6.922;2023-01-13T16:45:32;8.10;99.90
5009;DHT22;2523;51.058;6.922;2023-01-13T16:47:57;8.10;99.90
5009;DHT22;2523;51.058;6.922;2023-01-13T16:52:57;8.10;99.90
5009;DHT22;2523;51.058;6.922;2023-01-13T16:55:23;8.10;99.90
5009;DHT22;2523;51.058;6.922;2023-01-13T16:57:49;8.10;99.90
5009;DHT22;2523;51.058;6.922;2023-01-13T17:00:15;8.10;99.90
5009;DHT22;2523;51.058;6.922;2023-01-13T17:02:41;8.10;99.90
5009;DHT22;2523;51.058;6.922;2023-01-13T17:05:10;8.10;99.90
5009;DHT22;2523;51.058;6.922;2023-01-13T17:07:35;8.10;99.90
5009;DHT22;2523;51.058;6.922;2023-01-13T17:10:01;8.10;99.90
5009;DHT22;2523;51.058;6.922;2023-01-13T17:12:27;8.10;99.90
5009;DHT22;2523;51.058;6.922;2023-01-13T17:14:52;8.10;99.90
5009;DHT22;2523;51.058;6.922;2023-01-13T17:17:23;8.10;99.90
5009;DHT22;2523;51.058;6.922;2023-01-13T17:19:50;8.10;99.90
5009;DHT22;2523;51.058;6.922;2023-01-13T17:22:16;8.20;99.90
5009;DHT22;2523;51.058;6.922;2023-01-13T17:24:41;8.20;99.90
5009;DHT22;2523;51.058;6.922;2023-01-13T17:27:07;8.30;99.90
5009;DHT22;2523;51.058;6.922;2023-01-13T17:29:35;8.30;99.90
5009;DHT22;2523;51.058;6.922;2023-01-13T17:32:04;8.30;99.90
5009;DHT22;2523;51.058;6.922;2023-01-13T17:34:30;8.30;99.90
5009;DHT22;2523;51.058;6.922;2023-01-13T17:36:56;8.30;99.90
5009;DHT22;2523;51.058;6.922;2023-01-13T17:39:23;8.40;99.90
5009;DHT22;2523;51.058;6.922;2023-01-13T17:41:51;8.40;99.90
5009;DHT22;2523;51.058;6.922;2023-01-13T17:44:18;8.40;99.90
5009;DHT22;2523;51.058;6.922;2023-01-13T17:46:44;8.40;99.90
5009;DHT22;2523;51.058;6.922;2023-01-13T17:49:13;8.40;99.90
5009;DHT22;2523;51.058;6.922;2023-01-13T17:51:39;8.50;99.90
5009;DHT22;2523;51.058;6.922;2023-01-13T17:54:05;8.50;99.90
5009;DHT22;2523;51.058;6.922;2023-01-13T17:56:30;8.50;99.90
5009;DHT22;2523;51.058;6.922;2023-01-13T17:58:56;8.50;99.90
5009;DHT22;2523;51.058;6.922;2023-01-13T18:01:22;8.60;99.90
5009;DHT22;2523;51.058;6.922;2023-01-13T18:03:48;8.60;99.90
5009;DHT22;2523;51.058;6.922;2023-01-13T18:06:20;8.60;99.90
5009;DHT22;2523;51.058;6.922;2023-01-13T18:08:46;8.60;99.90
5009;DHT22;2523;51.058;6.922;2023-01-13T18:11:13;8.60;99.90
5009;DHT22;2523;51.058;6.922;2023-01-13T18:13:39;8.60;99.90
5009;DHT22;2523;51.058;6.922;2023-01-13T18:16:08;8.60;99.90
5009;DHT22;2523;51.058;6.922;2023-01-13T18:18:39;8.70;99.90
5009;DHT22;2523;51.058;6.922;2023-01-13T18:21:05;8.70;99.90